Time;durP1;ratioP1;P1;durP2;ratioP2;P2;SDS_P1;SDS_P2;PMS_P1;PMS_P2;Temp;Humidity;BMP_temperature;BMP_pressure;BME280_temperature;BME280_humidity;BME280_pressure;Samples;Min_cycle;Max_cycle;Signal;HPM_P1;HPM_P2
2024/04/22 00:04:12;;;;;;;0.00;0.00;;;;;;;-145.06;100.00;53191.75;11306957;26;20010;-65
2024/04/22 00:09:13;;;;;;;0.00;0.00;;;;;;;-145.06;100.00;53157.31;11297911;26;20003;-65
2024/04/22 00:14:13;;;;;;;0.03;0.03;;;;;;;-145.06;100.00;53185.66;11307387;26;20240;-65
2024/04/22 00:19:13;;;;;;;0.00;0.00;;;;;;;-145.06;100.00;53171.50;11308424;26;19999;-66
2024/04/22 00:24:14;;;;;;;0.00;0.00;;;;;;;-145.06;100.00;53189.72;11312083;26;19998;-66
2024/04/22 00:29:14;;;;;;;0.00;0.00;;;;;;;-145.06;100.00;53201.88;11299479;26;20089;-66
2024/04/22 00:34:14;;;;;;;0.00;0.00;;;;;;;-145.06;100.00;53181.63;11310900;26;20228;-66
2024/04/22 00:39:15;;;;;;;0.00;0.00;;;;;;;-145.06;100.00;53209.97;11302894;26;20232;-66
2024/04/22 00:44:16;;;;;;;0.00;0.00;;;;;;;-145.06;100.00;53228.19;11300645;26;20026;-65
2024/04/22 00:49:16;;;;;;;0.00;0.00;;;;;;;-145.06;100.00;53183.66;11308256;26;20013;-65
2024/04/22 00:54:16;;;;;;;0.00;0.00;;;;;;;-145.06;100.00;53214.00;11303758;26;20003;-65
2024/04/22 00:59:17;;;;;;;0.00;0.00;;;;;;;-145.06;100.00;53199.84;11298711;26;20224;-65
2024/04/22 01:04:18;;;;;;;0.00;0.00;;;;;;;-145.06;100.00;53187.69;11312383;26;20002;-66
2024/04/22 01:09:19;;;;;;;0.00;0.00;;;;;;;-145.06;100.00;53157.31;11301236;26;19998;-65
2024/04/22 01:14:19;;;;;;;0.00;0.00;;;;;;;-145.06;100.00;53195.78;11282765;26;20541;-65
2024/04/22 01:19:20;;;;;;;0.00;0.00;;;;;;;-145.06;100.00;53165.41;11286795;26;20014;-65
2024/04/22 01:24:21;;;;;;;0.00;0.00;;;;;;;-145.06;100.00;53183.66;11318883;26;20013;-66
2024/04/22 01:29:21;;;;;;;0.00;0.00;;;;;;;-145.06;100.00;53159.34;11312048;26;20447;-66
2024/04/22 01:34:22;;;;;;;0.00;0.00;;;;;;;-145.06;100.00;53175.53;11303641;26;20348;-65
2024/04/22 01:39:22;;;;;;;0.00;0.00;;;;;;;-145.06;100.00;53163.41;11301749;26;20268;-66
2024/04/22 01:44:22;;;;;;;0.00;0.00;;;;;;;-145.06;100.00;53177.56;11313605;26;20002;-66
2024/04/22 01:49:23;;;;;;;0.00;0.00;;;;;;;-145.06;100.00;53179.59;11290803;26;20232;-66
2024/04/22 01:54:23;;;;;;;0.00;0.00;;;;;;;-145.06;100.00;53173.53;11293116;26;20013;-66
2024/04/22 01:59:24;;;;;;;0.00;0.00;;;;;;;-145.06;100.00;53187.69;11305181;26;20005;-66
2024/04/22 02:04:24;;;;;;;0.00;0.00;;;;;;;-145.06;100.00;53173.53;11300213;26;20016;-66
2024/04/22 02:09:24;;;;;;;0.00;0.00;;;;;;;-145.06;100.00;53197.81;11316600;26;20006;-66
2024/04/22 02:14:27;;;;;;;0.10;0.10;;;;;;;-145.06;100.00;53177.56;11306740;26;20452;-66
2024/04/22 02:19:27;;;;;;;0.00;0.00;;;;;;;-145.06;100.00;53167.44;11301483;26;20011;-66
2024/04/22 02:24:27;;;;;;;0.00;0.00;;;;;;;-145.06;100.00;53167.44;11306578;26;20018;-66
2024/04/22 02:29:28;;;;;;;0.00;0.00;;;;;;;-145.06;100.00;53151.25;11310503;26;20460;-66
2024/04/22 02:34:28;;;;;;;0.00;0.00;;;;;;;-145.06;100.00;53151.25;11315479;26;20444;-66
2024/04/22 02:39:28;;;;;;;0.00;0.00;;;;;;;-145.06;100.00;53161.38;11312606;26;20232;-65
2024/04/22 02:44:29;;;;;;;0.00;0.00;;;;;;;-145.06;100.00;53147.19;11318678;26;20311;-66
2024/04/22 02:49:29;;;;;;;0.00;0.00;;;;;;;-145.06;100.00;53147.19;11314442;26;20003;-65
2024/04/22 02:54:31;;;;;;;0.00;0.00;;;;;;;-145.06;100.00;53149.22;11314527;26;20340;-66
2024/04/22 02:59:31;;;;;;;0.00;0.00;;;;;;;-145.06;100.00;53141.13;11326926;26;20028;-66
2024/04/22 03:04:32;;;;;;;0.00;0.00;;;;;;;-145.06;100.00;53145.16;11313391;26;20003;-67
2024/04/22 03:09:34;;;;;;;0.00;0.00;;;;;;;-145.06;100.00;53173.53;11310333;26;20014;-66
2024/04/22 03:14:35;;;;;;;0.00;0.00;;;;;;;-145.06;100.00;53169.47;11323764;26;19999;-66
2024/04/22 03:19:35;;;;;;;0.03;0.03;;;;;;;-145.06;100.00;53155.28;11300210;26;20002;-66
2024/04/22 03:24:36;;;;;;;0.10;0.10;;;;;;;-145.06;100.00;53181.63;11310485;26;20003;-66
2024/04/22 03:29:36;;;;;;;0.05;0.05;;;;;;;-145.06;100.00;53173.53;11312658;26;20002;-66
2024/04/22 03:34:36;;;;;;;0.10;0.10;;;;;;;-145.06;100.00;53163.41;11314311;26;20472;-66
2024/04/22 03:39:37;;;;;;;0.00;0.00;;;;;;;-145.06;100.00;53116.81;11305668;26;20349;-66
2024/04/22 03:44:37;;;;;;;0.00;0.00;;;;;;;-145.06;100.00;53135.06;11306478;26;20003;-66
2024/04/22 03:49:55;;;;;;;0.10;0.10;;;;;;;-145.06;100.00;53118.84;11312960;26;20020;-65
2024/04/22 03:54:56;;;;;;;0.00;0.00;;;;;;;-145.06;100.00;53145.16;11313411;26;20010;-66
2024/04/22 03:59:56;;;;;;;0.00;0.00;;;;;;;-145.06;100.00;53143.16;11313387;26;20009;-66
2024/04/22 04:04:56;;;;;;;0.00;0.00;;;;;;;-145.06;100.00;53147.19;11310051;26;20476;-66
2024/04/22 04:09:56;;;;;;;0.00;0.00;;;;;;;-145.06;100.00;53116.81;11303355;26;20018;-66
2024/04/22 04:14:57;;;;;;;0.00;0.00;;;;;;;-145.06;100.00;53100.63;11301733;26;20358;-66
2024/04/22 04:19:57;;;;;;;0.00;0.00;;;;;;;-145.06;100.00;53149.22;11312341;26;20002;-66
2024/04/22 04:24:57;;;;;;;0.08;0.08;;;;;;;-145.06;100.00;53171.50;11309067;26;20002;-66
2024/04/22 04:29:57;;;;;;;0.00;0.00;;;;;;;-145.06;100.00;53175.53;11307889;26;19997;-66
2024/04/22 04:34:58;;;;;;;0.00;0.00;;;;;;;-145.06;100.00;53203.91;11306397;26;20007;-66
2024/04/22 04:39:58;;;;;;;0.00;0.00;;;;;;;-145.06;100.00;53203.91;11313748;26;20471;-65
2024/04/22 04:44:58;;;;;;;0.00;0.00;;;;;;;-145.06;100.00;53278.81;11306950;26;19998;-65
2024/04/22 04:49:59;;;;;;;0.00;0.00;;;;;;;-145.06;100.00;53274.75;11307065;26;20075;-66
2024/04/22 04:54:59;;;;;;;0.00;0.00;;;;;;;-145.06;100.00;53274.75;11299950;26;20009;-66
2024/04/22 04:59:59;;;;;;;0.00;0.00;;;;;;;-145.06;100.00;53286.91;11306960;26;20013;-66
2024/04/22 05:04:59;;;;;;;0.00;0.00;;;;;;;-145.06;100.00;53264.63;11305950;26;19997;-66
2024/04/22 05:10:00;;;;;;;0.00;0.00;;;;;;;-145.06;100.00;53252.50;11312038;26;20344;-65
2024/04/22 05:15:00;;;;;;;0.00;0.00;;;;;;;-145.06;100.00;53248.44;11305979;26;20009;-66
2024/04/22 05:20:00;;;;;;;0.00;0.00;;;;;;;-145.06;100.00;53214.00;11304562;26;20336;-66
2024/04/22 05:25:01;;;;;;;0.00;0.00;;;;;;;-145.06;100.00;53212.00;11305607;26;20002;-65
2024/04/22 05:30:01;;;;;;;0.00;0.00;;;;;;;-145.06;100.00;53205.91;11308685;26;19998;-66
2024/04/22 05:40:20;;;;;;;0.00;0.00;;;;;;;-145.06;100.00;53209.97;11301621;26;20050;-66
2024/04/22 05:45:20;;;;;;;0.10;0.10;;;;;;;-145.06;100.00;53216.03;11303193;26;19999;-66
2024/04/22 05:50:21;;;;;;;0.08;0.08;;;;;;;-145.06;100.00;53137.06;11307645;26;20467;-66
2024/04/22 05:55:21;;;;;;;0.00;0.00;;;;;;;-145.06;99.76;53139.09;11305166;26;20467;-65
2024/04/22 06:00:21;;;;;;;0.00;0.00;;;;;;;-145.06;93.99;53112.78;11301107;26;20284;-65
2024/04/22 06:05:21;;;;;;;0.00;0.00;;;;;;;-145.06;88.69;53078.34;11312031;26;20071;-65
2024/04/22 06:10:22;;;;;;;0.00;0.00;;;;;;;-145.06;78.06;53070.25;11303280;26;20003;-65
2024/04/22 06:15:22;;;;;;;0.00;0.00;;;;;;;-145.06;74.47;53021.66;11299716;26;20014;-66
2024/04/22 06:20:23;;;;;;;0.00;0.00;;;;;;;-145.06;69.48;53015.59;11292338;26;20006;-65
2024/04/22 06:25:23;;;;;;;0.10;0.10;;;;;;;-145.06;62.45;53001.41;11305017;26;19999;-65
2024/04/22 06:30:23;;;;;;;0.10;0.10;;;;;;;-145.06;57.92;53106.69;11306240;26;19998;-65
2024/04/22 06:35:24;;;;;;;0.10;0.10;;;;;;;-145.06;60.50;53122.91;11314097;26;20006;-65
2024/04/22 06:40:24;;;;;;;0.10;0.10;;;;;;;-145.06;62.15;53155.28;11301612;26;19999;-65
2024/04/22 06:45:24;;;;;;;0.10;0.10;;;;;;;-145.06;62.54;53159.34;11304256;26;20006;-65
2024/04/22 06:50:24;;;;;;;0.00;0.00;;;;;;;-145.06;62.10;53013.56;11302262;26;20003;-65
2024/04/22 06:55:25;;;;;;;0.10;0.10;;;;;;;-145.06;54.77;52987.25;11310933;26;20007;-65
2024/04/22 07:00:26;;;;;;;0.10;0.10;;;;;;;-145.06;50.43;52971.03;11310321;26;20273;-65
2024/04/22 07:05:26;;;;;;;0.13;0.13;;;;;;;-145.06;48.72;52981.16;11316023;26;20401;-66
2024/04/22 07:10:27;;;;;;;0.10;0.10;;;;;;;-145.06;47.89;52875.88;11315164;26;20078;-66
2024/04/22 07:15:27;;;;;;;0.10;0.10;;;;;;;-145.06;44.92;52991.28;11305290;26;20013;-66
2024/04/22 07:20:27;;;;;;;0.10;0.10;;;;;;;-145.06;44.19;53139.09;11315217;26;20003;-65
2024/04/22 07:25:28;;;;;;;0.10;0.10;;;;;;;-145.06;45.49;53139.09;11309123;26;19999;-65
2024/04/22 07:30:28;;;;;;;0.10;0.10;;;;;;;-145.06;44.41;53025.72;11307912;26;19995;-66
2024/04/22 07:35:29;;;;;;;0.10;0.10;;;;;;;-145.06;43.76;53005.47;11302999;26;20010;-66
2024/04/22 07:40:31;;;;;;;0.10;0.10;;;;;;;-145.06;43.52;52991.28;11305670;26;20017;-66
2024/04/22 07:45:32;;;;;;;0.10;0.10;;;;;;;-145.06;43.23;52940.69;11304576;26;20014;-67
2024/04/22 07:50:32;;;;;;;0.10;0.10;;;;;;;-145.06;40.79;53029.75;11307836;26;20011;-66
2024/04/22 07:55:34;;;;;;;0.10;0.10;;;;;;;-145.06;38.87;53045.97;11301963;26;20002;-66
2024/04/22 08:00:35;;;;;;;0.00;0.00;;;;;;;-145.06;39.63;53005.47;11306870;26;20023;-66
2024/04/22 08:05:36;;;;;;;0.10;0.10;;;;;;;-145.06;40.49;52975.09;11321424;26;19998;-67
2024/04/22 08:10:36;;;;;;;0.00;0.00;;;;;;;-145.06;40.61;52975.09;11302421;26;19999;-67
2024/04/22 08:15:36;;;;;;;0.00;0.00;;;;;;;-145.06;38.15;52952.81;11299968;26;20010;-66
2024/04/22 08:20:37;;;;;;;0.10;0.10;;;;;;;-145.06;38.56;52967.00;11305152;26;20232;-65
2024/04/22 08:25:37;;;;;;;0.03;0.03;;;;;;;-145.06;37.24;52993.31;11293772;26;20464;-66
2024/04/22 08:30:39;;;;;;;0.00;0.00;;;;;;;-145.06;38.24;52971.03;11299648;26;20075;-67
2024/04/22 08:35:46;;;;;;;0.05;0.05;;;;;;;-145.06;38.12;52940.69;11307359;26;20003;-68
2024/04/22 08:40:49;;;;;;;0.00;0.00;;;;;;;-145.06;37.86;52985.22;11298536;26;20006;-66
2024/04/22 08:45:50;;;;;;;0.10;0.10;;;;;;;-145.06;37.22;53023.69;11305278;26;20015;-67
2024/04/22 08:50:53;;;;;;;0.00;0.00;;;;;;;-145.06;38.45;52989.28;11302776;26;20486;-67
2024/04/22 08:55:53;;;;;;;0.00;0.00;;;;;;;-145.06;35.97;53066.22;11309992;26;20356;-67
2024/04/22 09:00:53;;;;;;;0.07;0.07;;;;;;;-145.06;38.86;53021.66;11305492;26;20013;-67
2024/04/22 09:05:54;;;;;;;0.10;0.10;;;;;;;-145.06;38.03;53082.41;11297772;26;20013;-67
2024/04/22 09:10:56;;;;;;;0.00;0.00;;;;;;;-145.06;37.22;53068.22;11311971;26;20022;-68
2024/04/22 09:15:57;;;;;;;0.00;0.00;;;;;;;-145.06;37.90;53120.88;11306779;26;20347;-67
2024/04/22 09:21:07;;;;;;;0.00;0.00;;;;;;;-145.06;38.75;53090.50;11305111;26;20002;-67
2024/04/22 09:26:08;;;;;;;0.00;0.00;;;;;;;-145.06;38.93;53106.69;11301383;26;20436;-67
2024/04/22 09:31:09;;;;;;;0.10;0.10;;;;;;;-145.06;39.37;53070.25;11299263;26;20039;-67
2024/04/22 09:36:10;;;;;;;0.05;0.05;;;;;;;-145.06;39.08;53086.47;11310911;26;20511;-68
2024/04/22 09:41:11;;;;;;;0.10;0.10;;;;;;;-145.06;37.82;53043.94;11309572;26;20074;-68
2024/04/22 09:46:12;;;;;;;0.10;0.10;;;;;;;-145.06;37.27;53108.72;11301864;26;20010;-68
2024/04/22 09:51:14;;;;;;;0.10;0.10;;;;;;;-145.06;39.19;53122.91;11312481;26;20355;-68
2024/04/22 09:56:22;;;;;;;0.10;0.10;;;;;;;-145.06;39.36;53131.00;11303952;26;20011;-68
2024/04/22 10:01:22;;;;;;;0.10;0.10;;;;;;;-145.06;39.36;53131.00;11298219;26;20014;-67
2024/04/22 10:06:24;;;;;;;0.10;0.10;;;;;;;-145.06;40.90;53128.97;11302112;26;20374;-67
2024/04/22 10:11:29;;;;;;;0.00;0.00;;;;;;;-145.06;41.19;53078.34;11309489;26;20476;-67
2024/04/22 10:16:30;;;;;;;0.10;0.10;;;;;;;-145.06;38.08;53124.94;11294483;26;20402;-68
2024/04/22 10:21:30;;;;;;;0.00;0.00;;;;;;;-145.06;36.41;53147.19;11303475;26;20002;-67
2024/04/22 10:26:31;;;;;;;0.00;0.00;;;;;;;-145.06;38.14;53118.84;11302825;26;20344;-68
2024/04/22 10:31:32;;;;;;;0.10;0.10;;;;;;;-145.06;36.31;53240.34;11305276;26;20030;-67
2024/04/22 10:36:32;;;;;;;0.10;0.10;;;;;;;-145.06;40.45;53143.16;11308716;26;20022;-68
2024/04/22 10:41:32;;;;;;;0.10;0.10;;;;;;;-145.06;38.16;53159.34;11311882;26;20416;-67
2024/04/22 10:46:33;;;;;;;0.10;0.10;;;;;;;-145.06;38.68;53189.72;11307197;26;20075;-68
2024/04/22 10:51:33;;;;;;;0.00;0.00;;;;;;;-145.06;38.07;53147.19;11302493;26;20007;-68
2024/04/22 10:56:33;;;;;;;0.10;0.10;;;;;;;-145.06;37.63;53147.19;11311338;26;20041;-68
2024/04/22 11:01:34;;;;;;;0.10;0.10;;;;;;;-145.06;38.43;53179.59;11307452;26;20289;-68
2024/04/22 11:06:37;;;;;;;0.10;0.10;;;;;;;-145.06;38.66;53252.50;11297105;26;20018;-68
2024/04/22 11:11:38;;;;;;;0.10;0.10;;;;;;;-145.06;39.16;53262.63;11312966;26;20041;-68
2024/04/22 11:16:38;;;;;;;0.05;0.05;;;;;;;-145.06;40.11;53276.78;11310824;26;20476;-68
2024/04/22 11:21:39;;;;;;;0.10;0.10;;;;;;;-145.06;42.01;53254.50;11311590;26;20388;-69
2024/04/22 11:26:41;;;;;;;0.10;0.10;;;;;;;-145.06;40.59;53288.94;11314060;26;20275;-68
2024/04/22 11:31:43;;;;;;;0.10;0.10;;;;;;;-145.06;42.19;53207.94;11313551;26;20009;-69
2024/04/22 11:36:44;;;;;;;0.10;0.10;;;;;;;-145.06;40.51;53266.66;11305240;26;20621;-69
2024/04/22 11:41:44;;;;;;;0.03;0.03;;;;;;;-145.06;45.66;53270.72;11318224;26;20010;-69
2024/04/22 11:46:44;;;;;;;0.10;0.10;;;;;;;-145.06;50.47;53197.81;11305085;26;20002;-68
2024/04/22 11:51:45;;;;;;;0.00;0.00;;;;;;;-145.06;50.15;53205.91;11298257;26;20537;-69
2024/04/22 11:56:45;;;;;;;0.00;0.00;;;;;;;-145.06;48.62;53252.50;11292871;26;20003;-69
2024/04/22 12:01:46;;;;;;;0.10;0.10;;;;;;;-145.06;51.94;53224.13;11310925;26;20015;-68
2024/04/22 12:06:47;;;;;;;0.13;0.13;;;;;;;-145.06;61.88;53145.16;11308349;26;20038;-68
2024/04/22 12:11:47;;;;;;;0.00;0.00;;;;;;;-145.06;57.26;53159.34;11299366;26;20003;-68
2024/04/22 12:16:48;;;;;;;0.10;0.10;;;;;;;-145.06;58.72;53185.66;11301051;26;20003;-69
2024/04/22 12:21:49;;;;;;;0.10;0.10;;;;;;;-145.06;60.44;53193.78;11301753;26;20235;-69
2024/04/22 12:26:49;;;;;;;0.10;0.10;;;;;;;-145.06;67.47;53147.19;11300390;26;20013;-68
2024/04/22 12:31:49;;;;;;;0.10;0.10;;;;;;;-145.06;57.76;53175.53;11295702;26;20002;-68
2024/04/22 12:36:50;;;;;;;0.10;0.10;;;;;;;-145.06;55.34;53171.50;11298194;26;20408;-69
2024/04/22 12:41:52;;;;;;;0.10;0.10;;;;;;;-145.06;50.51;53244.38;11299376;26;19998;-68
2024/04/22 12:52:12;;;;;;;0.10;0.10;;;;;;;-145.06;45.64;53258.56;11288183;26;19999;-68
2024/04/22 12:57:12;;;;;;;0.10;0.10;;;;;;;-145.06;48.04;53244.38;11305404;26;20002;-68
2024/04/22 13:02:13;;;;;;;0.10;0.10;;;;;;;-145.06;46.87;53280.84;11307115;26;20011;-68
2024/04/22 13:07:13;;;;;;;0.10;0.10;;;;;;;-145.06;47.72;53278.81;11308023;26;20011;-68
2024/04/22 13:12:13;;;;;;;0.10;0.10;;;;;;;-145.06;50.25;53252.50;11292165;26;20011;-67
2024/04/22 13:17:14;;;;;;;0.10;0.10;;;;;;;-145.06;52.77;53228.19;11304776;26;20074;-68
2024/04/22 13:22:14;;;;;;;0.10;0.10;;;;;;;-145.06;64.18;53193.78;11312500;26;20487;-69
2024/04/22 13:27:14;;;;;;;0.00;0.00;;;;;;;-145.06;69.41;53165.41;11311599;26;20003;-69
2024/04/22 13:32:18;;;;;;;0.10;0.10;;;;;;;-145.06;72.74;53171.50;11316513;26;20013;-68
2024/04/22 13:37:18;;;;;;;0.10;0.10;;;;;;;-145.06;71.64;53159.34;11310018;26;20423;-68
2024/04/22 13:42:19;;;;;;;0.10;0.10;;;;;;;-145.06;73.47;53163.41;11299612;26;20072;-68
2024/04/22 13:47:19;;;;;;;0.10;0.10;;;;;;;-145.06;68.03;53197.81;11305532;26;19999;-67
2024/04/22 13:52:20;;;;;;;0.00;0.00;;;;;;;-145.06;67.62;53171.50;11300333;26;20440;-68
2024/04/22 13:57:20;;;;;;;0.10;0.10;;;;;;;-145.06;70.88;53173.53;11299619;26;20002;-68
2024/04/22 14:02:20;;;;;;;0.10;0.10;;;;;;;-145.06;64.99;53197.81;11310691;26;20732;-69
2024/04/22 14:07:21;;;;;;;0.00;0.00;;;;;;;-145.06;59.98;53216.03;11318549;26;20009;-69
2024/04/22 14:12:21;;;;;;;0.00;0.00;;;;;;;-145.06;61.41;53216.03;11334383;26;20227;-68
2024/04/22 14:17:22;;;;;;;0.00;0.00;;;;;;;-145.06;62.17;53199.84;11328751;26;20006;-69
2024/04/22 14:22:23;;;;;;;0.00;0.00;;;;;;;-145.06;61.32;53195.78;11325234;26;20007;-68
2024/04/22 14:27:23;;;;;;;0.10;0.10;;;;;;;-145.06;61.78;53220.09;11344727;26;20467;-68
2024/04/22 14:32:23;;;;;;;0.10;0.10;;;;;;;-145.06;61.90;53228.19;11333698;26;20474;-68
2024/04/22 14:37:24;;;;;;;0.00;0.00;;;;;;;-145.06;61.45;53248.44;11344591;26;20071;-68
2024/04/22 14:42:24;;;;;;;0.10;0.10;;;;;;;-145.06;62.19;53242.38;11313330;26;20005;-68
2024/04/22 14:47:24;;;;;;;0.10;0.10;;;;;;;-145.06;62.42;53228.19;11334681;26;20013;-68
2024/04/22 14:52:25;;;;;;;0.00;0.00;;;;;;;-145.06;60.00;53248.44;11337182;26;19999;-69
2024/04/22 14:57:26;;;;;;;0.00;0.00;;;;;;;-145.06;59.88;53260.59;11340688;26;20006;-68
2024/04/22 15:02:26;;;;;;;0.10;0.10;;;;;;;-145.06;59.44;53230.22;11333670;26;20010;-68
2024/04/22 15:07:28;;;;;;;0.00;0.00;;;;;;;-145.06;55.42;53284.88;11314306;26;20009;-69
2024/04/22 15:12:28;;;;;;;0.10;0.10;;;;;;;-145.06;53.45;53288.94;11314320;26;20484;-68
2024/04/22 15:17:28;;;;;;;0.00;0.00;;;;;;;-145.06;57.95;53278.81;11323320;26;20008;-68
2024/04/22 15:22:29;;;;;;;0.03;0.03;;;;;;;-145.06;60.21;53272.75;11322432;26;20002;-68
2024/04/22 15:27:29;;;;;;;0.10;0.10;;;;;;;-145.06;68.07;53240.34;11325369;26;20071;-68
2024/04/22 15:32:29;;;;;;;0.10;0.10;;;;;;;-145.06;73.41;53203.91;11327432;26;19995;-68
2024/04/22 15:37:29;;;;;;;0.00;0.00;;;;;;;-145.06;69.08;53212.00;11318697;26;20231;-68
2024/04/22 15:42:30;;;;;;;0.05;0.05;;;;;;;-145.06;69.71;53232.25;11331373;26;19994;-68
2024/04/22 15:47:30;;;;;;;0.10;0.10;;;;;;;-145.06;70.96;53234.25;11314496;26;20010;-68
2024/04/22 15:52:30;;;;;;;0.10;0.10;;;;;;;-145.06;70.93;53262.63;11340391;26;19994;-68
2024/04/22 15:57:32;;;;;;;0.00;0.00;;;;;;;-145.06;73.53;53242.38;11321554;26;19994;-68
2024/04/22 16:02:32;;;;;;;0.00;0.00;;;;;;;-145.06;66.86;53232.25;11310128;26;20340;-68
2024/04/22 16:07:33;;;;;;;0.00;0.00;;;;;;;-145.06;62.30;53290.97;11323973;26;20079;-68
2024/04/22 16:12:33;;;;;;;0.00;0.00;;;;;;;-145.06;60.32;53262.63;11308501;26;20319;-68
2024/04/22 16:17:33;;;;;;;0.10;0.10;;;;;;;-145.06;60.26;53276.78;11311801;26;20062;-68
2024/04/22 16:22:33;;;;;;;0.00;0.00;;;;;;;-145.06;59.01;53301.09;11317279;26;19991;-68
2024/04/22 16:27:34;;;;;;;0.00;0.00;;;;;;;-145.06;58.89;53284.88;11321232;26;20014;-68
2024/04/22 16:32:34;;;;;;;0.00;0.00;;;;;;;-145.06;58.70;53311.22;11314131;26;20517;-68
2024/04/22 16:37:36;;;;;;;0.00;0.00;;;;;;;-145.06;61.86;53278.81;11306691;26;20005;-68
2024/04/22 16:42:37;;;;;;;0.00;0.00;;;;;;;-145.06;61.26;53301.09;11296266;26;20075;-68
2024/04/22 16:47:37;;;;;;;0.00;0.00;;;;;;;-145.06;62.26;53274.75;11286831;26;20075;-68
2024/04/22 16:52:37;;;;;;;0.00;0.00;;;;;;;-145.06;61.47;53355.75;11295849;26;19998;-68
2024/04/22 16:57:37;;;;;;;0.00;0.00;;;;;;;-145.06;62.56;53311.22;11289806;26;19998;-68
2024/04/22 17:02:38;;;;;;;0.00;0.00;;;;;;;-145.06;62.33;53301.09;11308453;26;20413;-68
2024/04/22 17:07:38;;;;;;;0.00;0.00;;;;;;;-145.06;58.26;53319.31;11308576;26;19998;-68
2024/04/22 17:12:38;;;;;;;0.00;0.00;;;;;;;-145.06;58.92;53321.34;11297623;26;19999;-67
2024/04/22 17:17:39;;;;;;;0.00;0.00;;;;;;;-145.06;59.19;53345.63;11313002;26;20225;-68
2024/04/22 17:22:43;;;;;;;0.00;0.00;;;;;;;-145.06;61.27;53363.84;11300769;26;21501;-68
2024/04/22 17:27:43;;;;;;;0.00;0.00;;;;;;;-145.06;62.50;53353.72;11311851;26;20018;-67
2024/04/22 17:32:44;;;;;;;0.00;0.00;;;;;;;-145.06;63.72;53339.56;11296100;26;20017;-67
2024/04/22 17:37:44;;;;;;;0.00;0.00;;;;;;;-145.06;64.88;53337.53;11303980;26;20228;-68
2024/04/22 17:42:44;;;;;;;0.00;0.00;;;;;;;-145.06;65.18;53333.47;11301668;26;20002;-68
2024/04/22 17:47:44;;;;;;;0.03;0.03;;;;;;;-145.06;65.92;53349.69;11299364;26;20014;-68
2024/04/22 17:52:45;;;;;;;0.00;0.00;;;;;;;-145.06;66.77;53329.44;11303537;26;20002;-67
2024/04/22 17:57:45;;;;;;;0.00;0.00;;;;;;;-145.06;70.69;53288.94;11305671;26;20348;-68
2024/04/22 18:02:45;;;;;;;0.00;0.00;;;;;;;-145.06;72.29;53329.44;11292020;26;19998;-68
2024/04/22 18:07:45;;;;;;;0.00;0.00;;;;;;;-145.06;74.52;53315.25;11303214;26;19999;-68
2024/04/22 18:12:46;;;;;;;0.00;0.00;;;;;;;-145.06;77.36;53337.53;11293780;26;20002;-68
2024/04/22 18:17:46;;;;;;;0.00;0.00;;;;;;;-145.06;67.65;53329.44;11282968;26;20013;-68
2024/04/22 18:22:46;;;;;;;0.00;0.00;;;;;;;-145.06;65.55;53351.72;11298536;26;20076;-67
2024/04/22 18:27:47;;;;;;;0.00;0.00;;;;;;;-145.06;58.98;53398.28;11287995;26;19999;-67
2024/04/22 18:32:47;;;;;;;0.00;0.00;;;;;;;-145.06;59.85;53406.38;11302868;26;20340;-67
2024/04/22 18:37:47;;;;;;;0.00;0.00;;;;;;;-145.06;60.31;53371.97;11296372;26;20580;-67
2024/04/22 18:42:48;;;;;;;0.10;0.10;;;;;;;-145.06;60.63;53416.50;11297880;26;20018;-67
2024/04/22 18:47:48;;;;;;;0.00;0.00;;;;;;;-145.06;59.21;53428.66;11302524;26;20079;-67
2024/04/22 18:52:48;;;;;;;0.00;0.00;;;;;;;-145.06;58.88;53465.09;11301470;26;20009;-67
2024/04/22 18:57:48;;;;;;;0.00;0.00;;;;;;;-145.06;58.95;53428.66;11302925;26;20459;-67
2024/04/22 19:02:49;;;;;;;0.00;0.00;;;;;;;-145.06;60.88;53418.53;11290260;26;19999;-67
2024/04/22 19:07:49;;;;;;;0.00;0.00;;;;;;;-145.06;62.19;53422.56;11314986;26;20383;-67
2024/04/22 19:12:49;;;;;;;0.00;0.00;;;;;;;-145.06;64.14;53424.59;11323258;26;20010;-67
2024/04/22 19:17:51;;;;;;;0.00;0.00;;;;;;;-145.06;64.85;53452.94;11301265;26;20295;-67
2024/04/22 19:22:51;;;;;;;0.00;0.00;;;;;;;-145.06;66.28;53440.81;11303475;26;20587;-67
2024/04/22 19:27:52;;;;;;;0.00;0.00;;;;;;;-145.06;69.08;53477.25;11307940;26;20009;-67
2024/04/22 19:32:52;;;;;;;0.00;0.00;;;;;;;-145.06;69.78;53454.97;11309291;26;20015;-66
2024/04/22 19:37:52;;;;;;;0.00;0.00;;;;;;;-145.06;70.86;53459.03;11294142;26;20344;-67
2024/04/22 19:42:53;;;;;;;0.00;0.00;;;;;;;-145.06;72.44;53448.91;11302767;26;20006;-66
2024/04/22 19:47:53;;;;;;;0.00;0.00;;;;;;;-145.06;73.42;53438.78;11313005;26;20475;-67
2024/04/22 19:52:54;;;;;;;0.00;0.00;;;;;;;-145.06;78.08;53442.81;11303783;26;20002;-67
2024/04/22 19:57:54;;;;;;;0.00;0.00;;;;;;;-145.06;79.22;53438.78;11301059;26;19998;-68
2024/04/22 20:02:55;;;;;;;0.00;0.00;;;;;;;-145.06;80.18;53446.88;11307579;26;20028;-68
2024/04/22 20:07:55;;;;;;;0.08;0.08;;;;;;;-145.06;81.18;53444.84;11296834;26;20006;-67
2024/04/22 20:12:55;;;;;;;0.00;0.00;;;;;;;-145.06;82.27;53477.25;11292555;26;20013;-67
2024/04/22 20:18:15;;;;;;;0.00;0.00;;;;;;;-145.06;81.23;53473.19;11291200;26;20017;-67
2024/04/22 20:23:15;;;;;;;0.00;0.00;;;;;;;-145.06;81.01;53457.00;11300469;26;20456;-67
2024/04/22 20:28:15;;;;;;;0.00;0.00;;;;;;;-145.06;80.58;53483.31;11295185;26;20011;-67
2024/04/22 20:33:16;;;;;;;0.00;0.00;;;;;;;-145.06;81.41;53483.31;11299733;26;20018;-67
2024/04/22 20:38:16;;;;;;;0.00;0.00;;;;;;;-145.06;84.28;53465.09;11313399;26;20003;-67
2024/04/22 20:43:16;;;;;;;0.00;0.00;;;;;;;-145.06;87.58;53461.06;11291955;26;20405;-67
2024/04/22 20:48:16;;;;;;;0.00;0.00;;;;;;;-145.06;90.67;53438.78;11305813;26;20348;-67
2024/04/22 20:53:17;;;;;;;0.00;0.00;;;;;;;-145.06;91.13;53454.97;11303491;26;20352;-66
2024/04/22 20:58:17;;;;;;;0.00;0.00;;;;;;;-145.06;92.22;53438.78;11292046;26;20025;-66
2024/04/22 21:03:17;;;;;;;0.00;0.00;;;;;;;-145.06;93.10;53448.91;11320513;26;20018;-66
2024/04/22 21:08:18;;;;;;;0.00;0.00;;;;;;;-145.06;92.44;53487.38;11294700;26;19999;-66
2024/04/22 21:13:19;;;;;;;0.00;0.00;;;;;;;-145.06;92.78;53463.06;11291103;26;20021;-67
2024/04/22 21:18:20;;;;;;;0.00;0.00;;;;;;;-145.06;92.99;53461.06;11291364;26;20014;-67
2024/04/22 21:23:20;;;;;;;0.10;0.10;;;;;;;-145.06;99.02;53434.72;11287134;26;20017;-67
2024/04/22 21:28:20;;;;;;;0.00;0.00;;;;;;;-145.06;99.12;53430.69;11297568;26;19999;-66
2024/04/22 21:33:20;;;;;;;0.10;0.10;;;;;;;-145.06;99.11;53459.03;11299285;26;20005;-66
2024/04/22 21:38:21;;;;;;;0.00;0.00;;;;;;;-145.06;100.00;53442.81;11309239;26;19999;-67
2024/04/22 21:43:21;;;;;;;0.05;0.05;;;;;;;-145.06;100.00;53436.75;11302851;26;20074;-66
2024/04/22 21:48:23;;;;;;;0.00;0.00;;;;;;;-145.06;100.00;53410.44;11295965;26;19999;-66
2024/04/22 21:53:23;;;;;;;0.00;0.00;;;;;;;-145.06;100.00;53398.28;11290271;26;20013;-67
2024/04/22 21:59:02;;;;;;;0.05;0.05;;;;;;;-145.06;100.00;53398.28;11306673;26;19999;-66
2024/04/22 22:04:39;;;;;;;0.08;0.08;;;;;;;-145.06;100.00;53416.50;11291260;26;20013;-66
2024/04/22 22:09:40;;;;;;;0.10;0.10;;;;;;;-145.06;100.00;53414.47;11311284;26;20033;-66
2024/04/22 22:14:42;;;;;;;0.00;0.00;;;;;;;-145.06;100.00;53426.63;11288530;26;20013;-67
2024/04/22 22:19:45;;;;;;;0.00;0.00;;;;;;;-145.06;100.00;53408.41;11315546;26;20007;-67
2024/04/22 22:24:45;;;;;;;0.00;0.00;;;;;;;-145.06;100.00;53414.47;11323473;26;20401;-66
2024/04/22 22:29:46;;;;;;;0.10;0.10;;;;;;;-145.06;100.00;53426.63;11340473;26;20002;-67
2024/04/22 22:34:46;;;;;;;0.10;0.10;;;;;;;-145.06;100.00;53416.50;11334221;26;20410;-67
2024/04/22 22:39:47;;;;;;;0.10;0.10;;;;;;;-145.06;100.00;53430.69;11326773;26;20002;-66
2024/04/22 22:44:47;;;;;;;0.00;0.00;;;;;;;-145.06;100.00;53428.66;11326111;26;20257;-66
2024/04/22 22:49:47;;;;;;;0.10;0.10;;;;;;;-145.06;100.00;53422.56;11307932;26;19994;-66
2024/04/22 22:54:48;;;;;;;0.05;0.05;;;;;;;-145.06;100.00;53446.88;11311059;26;20006;-67